createdAt,value
2023-03-02T00:00:10.899Z,15.87
2023-03-02T00:05:15.064Z,15.70
2023-03-02T00:10:17.548Z,17.13
2023-03-02T00:15:21.431Z,14.40
2023-03-02T00:20:23.951Z,15.23
2023-03-02T00:25:26.200Z,15.27
2023-03-02T00:30:30.070Z,14.03
2023-03-02T00:35:32.580Z,16.90
2023-03-02T00:40:37.675Z,17.20
2023-03-02T00:45:41.361Z,17.60
2023-03-02T00:50:44.140Z,16.80
2023-03-02T00:55:54.905Z,17.60
2023-03-02T01:00:58.601Z,18.07
2023-03-02T01:06:01.231Z,17.27
2023-03-02T01:11:03.785Z,16.17
2023-03-02T01:16:08.442Z,17.23
2023-03-02T01:21:13.389Z,15.30
2023-03-02T01:26:15.597Z,14.30
2023-03-02T01:31:18.991Z,16.23
2023-03-02T01:36:21.286Z,15.97
2023-03-02T01:41:23.445Z,16.53
2023-03-02T01:46:28.625Z,16.87
2023-03-02T01:51:34.970Z,15.47
2023-03-02T01:56:41.071Z,19.57
2023-03-02T02:01:50.592Z,18.60
2023-03-02T02:06:58.094Z,18.87
2023-03-02T02:12:00.643Z,18.30
2023-03-02T02:17:04.320Z,16.77
2023-03-02T02:22:07.020Z,18.97
2023-03-02T02:27:10.953Z,18.53
2023-03-02T02:32:18.474Z,18.23
2023-03-02T02:37:24.373Z,17.53
2023-03-02T02:42:32.052Z,17.53
2023-03-02T02:47:35.160Z,18.27
2023-03-02T02:52:38.157Z,17.27
2023-03-02T02:57:42.906Z,17.50
2023-03-02T03:02:49.096Z,17.03
2023-03-02T03:07:51.525Z,16.37
2023-03-02T03:12:55.240Z,17.73
2023-03-02T03:17:57.478Z,18.80
2023-03-02T03:23:00.983Z,17.03
2023-03-02T03:28:04.769Z,17.47
2023-03-02T03:33:06.717Z,17.40
2023-03-02T03:38:08.956Z,17.57
2023-03-02T03:43:15.291Z,17.30
2023-03-02T03:48:17.338Z,16.57
2023-03-02T03:53:19.087Z,16.50
2023-03-02T03:58:22.425Z,16.43
2023-03-02T04:03:25.764Z,15.17
2023-03-02T04:08:28.207Z,15.60
2023-03-02T04:13:31.600Z,14.80
2023-03-02T04:18:33.707Z,15.37
2023-03-02T04:23:35.894Z,16.53
2023-03-02T04:28:39.240Z,15.67
2023-03-02T04:33:41.694Z,14.77
2023-03-02T04:38:43.915Z,16.97
2023-03-02T04:43:47.718Z,14.93
2023-03-02T04:48:49.752Z,14.67
2023-03-02T04:53:52.415Z,15.30
2023-03-02T04:58:56.799Z,16.03
2023-03-02T05:04:00.739Z,17.37
2023-03-02T05:09:05.125Z,17.23
2023-03-02T05:14:10.862Z,18.43
2023-03-02T05:19:13.613Z,18.77
2023-03-02T05:24:15.455Z,16.60
2023-03-02T05:29:19.028Z,16.50
2023-03-02T05:34:22.526Z,17.87
2023-03-02T05:39:25.086Z,15.40
2023-03-02T05:44:28.966Z,15.10
2023-03-02T05:49:31.309Z,16.77
2023-03-02T05:54:33.705Z,17.47
2023-03-02T05:59:37.871Z,17.87
2023-03-02T06:04:44.596Z,16.60
2023-03-02T06:09:46.797Z,16.43
2023-03-02T06:14:50.716Z,17.40
2023-03-02T06:19:52.809Z,17.53
2023-03-02T06:24:55.468Z,17.87
2023-03-02T06:29:58.844Z,17.57
2023-03-02T06:35:01.380Z,17.60
2023-03-02T06:40:08.804Z,18.27
2023-03-02T06:45:13.029Z,16.07
2023-03-02T06:50:15.427Z,15.37
2023-03-02T06:55:17.940Z,16.77
2023-03-02T07:00:28.195Z,16.80
2023-03-02T07:05:32.351Z,18.90
2023-03-02T07:10:34.648Z,15.57
2023-03-02T07:15:40.403Z,17.10
2023-03-02T07:20:42.671Z,19.80
2023-03-02T07:25:44.948Z,19.00
2023-03-02T07:30:48.509Z,18.77
2023-03-02T07:35:50.731Z,20.57
2023-03-02T07:40:53.323Z,22.07
2023-03-02T07:45:59.474Z,20.23
2023-03-02T07:51:01.758Z,22.43
2023-03-02T07:56:08.999Z,21.93
2023-03-02T08:01:12.971Z,21.57
2023-03-02T08:06:15.580Z,20.33
2023-03-02T08:11:19.580Z,20.07
2023-03-02T08:16:25.129Z,19.43
2023-03-02T08:21:28.621Z,18.53
2023-03-02T08:26:31.181Z,20.43
2023-03-02T08:31:35.505Z,22.23
2023-03-02T08:36:38.366Z,20.13
2023-03-02T08:41:40.821Z,17.83
2023-03-02T08:46:44.379Z,17.77
2023-03-02T08:51:47.138Z,17.80
2023-03-02T08:56:50.312Z,16.70
2023-03-02T09:01:54.153Z,15.93
2023-03-02T09:06:56.436Z,16.73
2023-03-02T09:11:58.960Z,16.73
2023-03-02T09:17:02.539Z,17.00
2023-03-02T09:22:04.740Z,17.03
2023-03-02T09:27:07.137Z,17.03
2023-03-02T09:32:11.989Z,17.30
2023-03-02T09:37:14.735Z,16.80
2023-03-02T09:42:44.667Z,17.60
2023-03-02T09:47:56.954Z,18.90
2023-03-02T09:53:32.498Z,18.33
2023-03-02T09:58:39.676Z,17.37
2023-03-02T10:03:49.924Z,18.20
2023-03-02T10:08:52.436Z,17.97
2023-03-02T10:14:00.928Z,17.80
2023-03-02T10:19:15.212Z,17.63
2023-03-02T10:24:29.172Z,16.73
2023-03-02T10:29:44.261Z,16.37
2023-03-02T10:34:50.132Z,17.17
2023-03-02T10:39:52.828Z,18.03
2023-03-02T10:44:59.125Z,18.73
2023-03-02T10:50:02.852Z,17.98
2023-03-02T10:55:06.191Z,18.20
2023-03-02T11:00:18.560Z,18.05
2023-03-02T11:05:27.709Z,18.00
2023-03-02T11:10:32.403Z,18.65
2023-03-02T11:15:42.332Z,19.55
2023-03-02T11:20:50.423Z,18.77
2023-03-02T11:25:55.737Z,18.42
2023-03-02T11:31:00.993Z,18.07
2023-03-02T11:36:11.066Z,17.63
2023-03-02T11:41:27.435Z,19.03
2023-03-02T11:46:31.895Z,19.17
2023-03-02T11:51:44.674Z,18.60
2023-03-02T11:56:52.701Z,20.17
2023-03-02T12:01:57.108Z,20.97
2023-03-02T12:07:01.578Z,19.80
2023-03-02T12:12:32.840Z,18.63
2023-03-02T12:17:36.889Z,19.70
2023-03-02T12:22:41.505Z,20.33
2023-03-02T12:27:43.799Z,20.10
2023-03-02T12:32:48.540Z,20.90
2023-03-02T12:37:57.503Z,20.40
2023-03-02T12:43:26.700Z,20.77
2023-03-02T12:48:33.104Z,20.83
2023-03-02T12:53:37.653Z,21.33
2023-03-02T12:58:39.763Z,20.90
2023-03-02T13:03:49.142Z,21.13
2023-03-02T13:08:56.088Z,21.20
2023-03-02T13:13:59.210Z,21.27
2023-03-02T13:19:03.177Z,21.07
2023-03-02T13:24:27.831Z,22.40
2023-03-02T13:29:32.134Z,21.57
2023-03-02T13:34:35.821Z,21.50
2023-03-02T13:39:39.245Z,21.40
2023-03-02T13:44:41.244Z,22.03
2023-03-02T13:49:43.033Z,22.07
2023-03-02T13:54:48.400Z,22.13
2023-03-02T13:59:51.023Z,21.83
2023-03-02T14:04:54.257Z,22.77
2023-03-02T14:09:58.628Z,22.60
2023-03-02T14:15:03.585Z,22.40
2023-03-02T14:20:06.578Z,22.60
2023-03-02T14:25:11.335Z,22.17
2023-03-02T14:30:18.525Z,21.90
2023-03-02T14:35:20.712Z,21.07
2023-03-02T14:40:27.437Z,20.60
2023-03-02T14:45:30.943Z,21.37
2023-03-02T14:50:36.682Z,22.00
2023-03-02T14:55:43.318Z,22.53
2023-03-02T15:00:46.401Z,21.53
2023-03-02T15:06:00.380Z,20.60
2023-03-02T15:11:04.865Z,21.30
2023-03-02T15:16:08.124Z,22.97
2023-03-02T15:21:17.143Z,22.30
2023-03-02T15:26:20.903Z,22.67
2023-03-02T15:31:23.175Z,21.20
2023-03-02T15:36:26.709Z,21.97
2023-03-02T15:41:30.930Z,21.17
2023-03-02T15:46:33.295Z,21.10
2023-03-02T15:51:35.327Z,21.00
2023-03-02T15:56:44.284Z,20.80
2023-03-02T16:01:47.612Z,21.67
2023-03-02T16:06:50.116Z,20.97
2023-03-02T16:11:54.718Z,19.63
2023-03-02T16:16:56.962Z,26.33
2023-03-02T16:21:59.423Z,21.33
2023-03-02T16:27:03.220Z,20.63
2023-03-02T16:32:06.885Z,21.23
2023-03-02T16:37:08.960Z,20.13
2023-03-02T16:42:12.807Z,19.83
2023-03-02T16:47:15.088Z,21.00
2023-03-02T16:52:18.573Z,20.03
2023-03-02T16:57:22.784Z,19.23
2023-03-02T17:02:25.054Z,20.60
2023-03-02T17:07:28.349Z,21.43
2023-03-02T17:12:32.407Z,21.77
2023-03-02T17:17:35.649Z,21.27
2023-03-02T17:22:38.936Z,20.93
2023-03-02T17:27:42.516Z,21.63
2023-03-02T17:32:46.179Z,20.37
2023-03-02T17:37:48.545Z,21.97
2023-03-02T17:42:55.786Z,22.87
2023-03-02T17:48:03.376Z,22.70
2023-03-02T17:53:06.727Z,21.13
2023-03-02T17:58:11.138Z,21.80
2023-03-02T18:03:14.586Z,21.67
2023-03-02T18:08:18.583Z,23.03
2023-03-02T18:13:23.396Z,22.00
2023-03-02T18:18:26.961Z,21.57
2023-03-02T18:23:33.175Z,21.77
2023-03-02T18:28:37.650Z,22.70
2023-03-02T18:33:40.855Z,21.40
2023-03-02T18:38:44.610Z,21.07
2023-03-02T18:43:49.583Z,23.43
2023-03-02T18:48:53.264Z,23.97
2023-03-02T18:53:56.626Z,23.40
2023-03-02T18:59:01.629Z,23.43
2023-03-02T19:04:06.560Z,22.60
2023-03-02T19:09:10.741Z,21.63
2023-03-02T19:14:16.099Z,22.77
2023-03-02T19:19:19.767Z,22.43
2023-03-02T19:24:32.527Z,21.90
2023-03-02T19:29:41.898Z,23.27
2023-03-02T19:34:45.864Z,22.90
2023-03-02T19:39:50.484Z,21.47
2023-03-02T19:44:56.964Z,22.17
2023-03-02T19:50:00.717Z,23.20
2023-03-02T19:55:05.498Z,22.57
2023-03-02T20:00:15.533Z,20.30
2023-03-02T20:05:19.757Z,21.70
2023-03-02T20:10:29.484Z,21.30
2023-03-02T20:15:38.848Z,19.97
2023-03-02T20:20:53.189Z,20.77
2023-03-02T20:25:57.463Z,22.13
2023-03-02T20:31:08.060Z,20.67
2023-03-02T20:36:13.751Z,20.27
2023-03-02T20:41:18.487Z,20.37
2023-03-02T20:46:27.811Z,21.53
2023-03-02T20:51:30.795Z,22.13
2023-03-02T20:56:35.363Z,21.07
2023-03-02T21:01:41.895Z,21.30
2023-03-02T21:06:46.720Z,22.27
2023-03-02T21:11:52.482Z,21.63
2023-03-02T21:16:56.980Z,22.50
2023-03-02T21:22:00.702Z,21.97
2023-03-02T21:27:04.397Z,22.17
2023-03-02T21:32:09.836Z,21.93
2023-03-02T21:37:13.301Z,21.67
2023-03-02T21:42:15.278Z,19.80
2023-03-02T21:47:19.433Z,20.33
2023-03-02T21:52:22.512Z,22.60
2023-03-02T21:57:25.535Z,22.13
2023-03-02T22:02:29.266Z,22.23
2023-03-02T22:07:31.651Z,20.63
2023-03-02T22:12:33.811Z,20.50
2023-03-02T22:17:37.545Z,21.10
2023-03-02T22:22:39.677Z,20.80
2023-03-02T22:27:42.695Z,22.83
2023-03-02T22:32:46.794Z,22.47
2023-03-02T22:37:49.559Z,21.00
2023-03-02T22:42:54.460Z,21.50
2023-03-02T22:48:03.414Z,22.23
2023-03-02T22:53:49.438Z,21.20
2023-03-02T22:59:37.840Z,22.07
2023-03-02T23:04:42.996Z,20.43
2023-03-02T23:09:45.302Z,21.53
2023-03-02T23:14:50.719Z,21.50
2023-03-02T23:19:54.752Z,20.30
2023-03-02T23:24:57.115Z,20.67
2023-03-02T23:29:59.441Z,22.13
2023-03-02T23:35:02.986Z,20.77
2023-03-02T23:40:05.743Z,22.83
2023-03-02T23:45:09.149Z,21.53
2023-03-02T23:50:14.111Z,22.57
2023-03-02T23:55:16.663Z,23.27
